Flight Information

DEPARTURE
BOZEMAN, MT
Elevation:
4473
Runways:
3/21 - 2650x75 - ASPH-G
11/29 - 5050x75 - ASPH-G
11G/29G - 2802x80 - TURF-G
12/30 - 8994x150 - ASPH-G
Tower:
118.2
DESTINATION
,
Elevation:
TPA:
1000 (est.)


6274.3 NM75° True-16° Var58° HDG

Flight Plan:
(click to file on line)

1. Type
2. Aircraft Identification
3. Aircraft Type / Special Equipment
4. True Airspeed
kts
5. Departure Airport
(ICAO code)
6. Arriving Airport
(ICAO code)
7. Cruising Altitude
ft
8. Alternate Airport
(ICAO code)
9. Route of Flight
10. Remarks


00:00:00 Departure ATIS: Destination ATIS:

Clearance Limit:
Route:
Altitude: Expect in minutes
Frequency:
Transponder: (7500 Hijack / 7600 Lost Comms / 7700 Emergency)


KBZN 080056Z 26016G20KT 10SM CLR 16/M06 A2988 RMK AO2 SLP104 T01561061
Time: 2020-04-08T00:56:00Z
1586310843
Winds: 260 @ 16 kts
Gusting:20 kts
Visibility: 10.0 sm
Clouds (AGL): CLR
Temperature: 15.6 C
Dew Point: -6.1 C
Pressure: 29.878937 in Hgbr


Notes:

Data extracted from FAA Digital Chart Supplement. Effective: 0901Z Thursday, Mar 26, 2020 to 0901Z Thursday, May 21, 2020
Current ATIS data is provided courtisy of PilotEdge.